Propst Crossroads, North Carolina
Current Conditions -  °F | °C
As of 3:23 PM on Sunday 23 Nov 2014 (Local Time) from KHKY Reporting Station
Heavy Rain Heavy Rain  
Wind Chill: 41°   Ceiling: 200
Heat Index: 44°   Visibility: 0.75mi
Dew Point: 43°   Wind: 6mph
Humidity: 96%   Direction: 320°NW
Pressure: 29.97"   Gusts: NA
Location:  35.6271°N, 81.2599°W
Report Text: KHKY 232023Z 32005KT 3/4SM +RA BR OVC002 07/06 A2997 RMK AO2 CIG 001V006 P0011 T00670061
Loading
Personal Weather Stations






























Interactive Weather Map New forecast layout! Learn more

10-Day Weather Forecast

Advertisements
Track Severe Weather on mobile